Time;durP1;ratioP1;P1;durP2;ratioP2;P2;SDS_P1;SDS_P2;PMS_P1;PMS_P2;Temp;Humidity;BMP_temperature;BMP_pressure;BME280_temperature;BME280_humidity;BME280_pressure;Samples;Min_cycle;Max_cycle;Signal;HPM_P1;HPM_P2
2023/01/04 00:01:38;;;;;;;4.47;1.50;;;12.00;68.90;;;;;;4990786;28;20053;-50
2023/01/04 00:04:07;;;;;;;5.22;1.52;;;12.00;69.00;;;;;;4987525;28;20041;-54
2023/01/04 00:06:34;;;;;;;2.47;1.20;;;12.00;68.90;;;;;;4989113;28;20066;-51
2023/01/04 00:09:02;;;;;;;1.27;0.75;;;12.10;69.00;;;;;;4982588;28;20042;-53
2023/01/04 00:11:29;;;;;;;3.20;1.33;;;12.10;69.00;;;;;;4990731;28;20514;-51
2023/01/04 00:14:01;;;;;;;3.78;1.55;;;12.10;69.00;;;;;;4988469;28;20049;-51
2023/01/04 00:16:31;;;;;;;1.48;1.10;;;12.10;68.90;;;;;;4988384;28;20062;-52
2023/01/04 00:19:03;;;;;;;2.38;1.38;;;12.20;68.90;;;;;;4990468;28;20057;-54
2023/01/04 00:21:30;;;;;;;3.50;1.48;;;12.20;68.90;;;;;;4989182;28;20521;-53
2023/01/04 00:23:59;;;;;;;2.65;1.10;;;12.20;68.90;;;;;;4980707;28;20042;-52
2023/01/04 00:26:31;;;;;;;3.08;1.13;;;12.30;69.60;;;;;;4990737;28;20537;-51
2023/01/04 00:29:00;;;;;;;3.63;1.20;;;12.30;69.00;;;;;;4988081;28;20502;-54
2023/01/04 00:31:29;;;;;;;6.97;1.48;;;12.30;69.20;;;;;;4985554;28;20081;-53
2023/01/04 00:33:58;;;;;;;2.67;1.20;;;12.30;69.20;;;;;;4985876;28;20055;-52
2023/01/04 00:36:30;;;;;;;2.17;1.02;;;12.40;69.30;;;;;;4990481;28;20048;-52
2023/01/04 00:39:08;;;;;;;2.08;1.13;;;12.40;69.50;;;;;;4989602;28;20077;-55
2023/01/04 00:41:43;;;;;;;3.38;1.08;;;12.40;69.80;;;;;;4986182;28;20074;-54
2023/01/04 00:44:34;;;;;;;2.60;1.58;;;12.40;70.10;;;;;;4984875;28;20054;-53
2023/01/04 00:47:03;;;;;;;5.18;0.95;;;12.40;70.20;;;;;;4976599;28;20060;-52
2023/01/04 00:49:31;;;;;;;3.13;0.88;;;12.40;70.40;;;;;;4988971;28;20561;-53
2023/01/04 00:52:00;;;;;;;4.20;1.30;;;12.40;70.40;;;;;;4990151;28;20538;-51
2023/01/04 00:54:27;;;;;;;1.85;1.08;;;12.30;70.50;;;;;;4990128;28;20066;-52
2023/01/04 00:56:56;;;;;;;3.10;1.10;;;12.30;70.70;;;;;;4989103;28;20121;-52
2023/01/04 00:59:23;;;;;;;2.75;1.02;;;12.30;70.90;;;;;;4992822;28;20161;-51
2023/01/04 01:01:50;;;;;;;3.83;0.80;;;12.30;71.00;;;;;;4989104;28;20559;-52
2023/01/04 01:04:20;;;;;;;4.57;1.13;;;12.30;70.90;;;;;;4992743;28;20104;-51
2023/01/04 01:06:51;;;;;;;1.85;1.25;;;12.30;71.10;;;;;;4993080;28;20046;-51
2023/01/04 01:09:21;;;;;;;3.28;0.95;;;12.30;71.10;;;;;;4991490;28;20045;-53
2023/01/04 01:11:48;;;;;;;1.67;1.33;;;12.30;71.20;;;;;;4990099;28;20046;-51
2023/01/04 01:14:18;;;;;;;3.35;1.20;;;12.30;71.40;;;;;;4993511;28;20049;-53
2023/01/04 01:16:45;;;;;;;3.78;1.50;;;12.30;71.50;;;;;;4993818;28;20125;-50
2023/01/04 01:19:27;;;;;;;4.70;1.10;;;12.30;71.60;;;;;;4987982;28;20100;-52
2023/01/04 01:21:57;;;;;;;2.50;1.08;;;12.30;71.70;;;;;;4992429;28;20046;-50
2023/01/04 01:24:26;;;;;;;1.90;1.00;;;12.30;71.80;;;;;;4993285;28;20395;-52
2023/01/04 01:26:56;;;;;;;2.97;1.17;;;12.40;72.00;;;;;;4991986;28;20527;-50
2023/01/04 01:29:25;;;;;;;2.70;1.33;;;12.30;72.00;;;;;;4991537;28;20061;-51
2023/01/04 01:31:57;;;;;;;2.20;1.00;;;12.30;72.20;;;;;;4993280;28;20054;-52
2023/01/04 01:34:25;;;;;;;1.80;0.90;;;12.30;72.50;;;;;;4992234;28;20038;-52
2023/01/04 01:36:51;;;;;;;2.97;1.00;;;12.30;72.50;;;;;;4990396;28;20050;-50
2023/01/04 01:39:20;;;;;;;3.50;0.98;;;12.20;72.70;;;;;;4987783;28;20637;-54
2023/01/04 01:41:48;;;;;;;2.22;1.30;;;12.20;72.80;;;;;;5007797;28;20060;-53
2023/01/04 01:44:43;;;;;;;2.08;1.02;;;12.20;73.00;;;;;;4992116;28;20159;-52
2023/01/04 01:47:14;;;;;;;3.22;1.00;;;12.20;73.60;;;;;;4967663;28;20066;-53
2023/01/04 01:49:46;;;;;;;3.83;1.15;;;12.20;73.40;;;;;;4992371;28;20038;-54
2023/01/04 01:52:34;;;;;;;1.40;0.75;;;12.20;73.50;;;;;;4992901;28;20058;-51
2023/01/04 01:55:04;;;;;;;1.90;0.80;;;12.20;74.10;;;;;;4992479;28;20125;-54
2023/01/04 01:57:36;;;;;;;3.00;1.17;;;12.20;73.80;;;;;;4984734;28;20114;-54
2023/01/04 02:00:10;;;;;;;2.17;0.73;;;12.20;74.00;;;;;;4991772;28;20483;-51
2023/01/04 02:02:48;;;;;;;2.60;1.20;;;12.10;74.10;;;;;;5003874;28;20054;-54
2023/01/04 02:05:18;;;;;;;4.07;0.90;;;12.20;74.40;;;;;;4991359;28;20030;-52
2023/01/04 02:07:49;;;;;;;0.80;0.60;;;12.10;74.30;;;;;;4989538;28;20126;-51
2023/01/04 02:10:18;;;;;;;2.45;1.05;;;12.10;74.40;;;;;;4992379;28;20045;-52
2023/01/04 02:12:45;;;;;;;2.95;0.80;;;12.10;74.40;;;;;;4992582;28;20522;-51
2023/01/04 02:15:14;;;;;;;3.15;0.82;;;12.10;74.40;;;;;;4986404;28;20049;-53
2023/01/04 02:18:07;;;;;;;2.88;0.95;;;12.10;74.40;;;;;;4987560;28;20510;-54
2023/01/04 02:21:06;;;;;;;2.13;0.73;;;12.20;74.70;;;;;;4992204;28;20081;-50
2023/01/04 02:24:05;;;;;;;1.08;0.80;;;12.20;74.70;;;;;;4985753;28;20117;-52
2023/01/04 02:26:58;;;;;;;;;;;12.20;74.70;;;;;;4992501;28;20045;-51
2023/01/04 02:29:36;;;;;;;4.05;0.90;;;12.20;74.50;;;;;;4992026;28;19937;-51
2023/01/04 02:32:15;;;;;;;1.30;0.60;;;12.30;74.30;;;;;;4990474;28;20042;-52
2023/01/04 02:35:02;;;;;;;2.15;0.85;;;12.30;74.30;;;;;;4985559;28;20145;-51
2023/01/04 02:37:51;;;;;;;2.92;0.90;;;12.30;74.30;;;;;;4983842;28;20046;-53
2023/01/04 02:40:33;;;;;;;1.60;0.70;;;12.30;74.30;;;;;;4956522;28;20502;-51
2023/01/04 02:46:07;;;;;;;1.48;0.60;;;12.40;74.20;;;;;;4982530;28;20047;-51
2023/01/04 02:51:35;;;;;;;1.80;0.40;;;12.40;74.00;;;;;;4985990;28;20100;-51
2023/01/04 02:54:06;;;;;;;1.33;0.52;;;12.50;74.00;;;;;;4984952;28;20053;-51
2023/01/04 02:57:08;;;;;;;1.95;0.40;;;12.50;73.90;;;;;;4991567;28;20046;-53
2023/01/04 02:59:37;;;;;;;0.95;0.50;;;12.60;73.60;;;;;;4990435;28;20557;-52
2023/01/04 03:06:16;;;;;;;0.50;0.30;;;12.60;73.60;;;;;;4925859;29;20050;-51
2023/01/04 03:09:07;;;;;;;1.02;0.60;;;12.70;73.40;;;;;;4929586;29;20056;-53
2023/01/04 03:14:46;;;;;;;0.98;0.60;;;12.70;73.20;;;;;;4987290;28;20041;-50
2023/01/04 03:17:17;;;;;;;2.03;0.40;;;12.80;73.20;;;;;;4990437;28;20042;-51
2023/01/04 03:19:53;;;;;;;1.23;0.63;;;12.80;73.20;;;;;;4990086;28;20042;-53
2023/01/04 03:37:07;;;;;;;1.35;0.50;;;12.80;73.20;;;;;;4987197;28;20053;-53
2023/01/04 03:48:55;;;;;;;3.63;0.50;;;12.80;73.60;;;;;;4995502;28;20092;-52
2023/01/04 03:51:30;;;;;;;2.20;0.75;;;12.80;73.70;;;;;;4986070;28;20513;-53
2023/01/04 03:54:12;;;;;;;0.30;0.28;;;12.70;73.70;;;;;;4990661;28;20042;-51
2023/01/04 03:56:42;;;;;;;1.38;0.30;;;12.80;73.90;;;;;;4990951;28;20050;-50
2023/01/04 03:59:13;;;;;;;1.17;0.20;;;12.70;73.90;;;;;;4984965;28;20124;-51
2023/01/04 04:01:44;;;;;;;0.25;0.25;;;12.70;73.90;;;;;;4990865;28;20129;-53
2023/01/04 04:09:50;;;;;;;1.60;0.30;;;12.70;73.90;;;;;;4986696;28;20494;-52
2023/01/04 04:12:19;;;;;;;0.55;0.55;;;12.80;74.00;;;;;;4983248;28;20082;-54
2023/01/04 04:14:46;;;;;;;0.95;0.47;;;12.80;74.20;;;;;;4989728;28;20054;-50
2023/01/04 04:17:12;;;;;;;1.20;0.50;;;12.80;74.20;;;;;;4988389;28;20465;-52
2023/01/04 04:19:39;;;;;;;1.40;0.38;;;12.80;74.30;;;;;;4987454;28;20134;-54
2023/01/04 04:22:07;;;;;;;0.95;0.47;;;12.80;74.40;;;;;;4990460;28;20654;-50
2023/01/04 04:24:34;;;;;;;0.40;0.30;;;12.80;74.40;;;;;;4988739;28;20391;-51
2023/01/04 04:27:04;;;;;;;0.43;0.35;;;12.70;74.50;;;;;;4986894;28;20042;-52
2023/01/04 04:29:30;;;;;;;0.47;0.28;;;12.70;74.60;;;;;;4992745;28;20416;-51
2023/01/04 04:31:59;;;;;;;0.65;0.40;;;12.70;74.70;;;;;;4992927;28;20066;-51
2023/01/04 04:34:26;;;;;;;0.90;0.60;;;12.70;74.80;;;;;;4993361;28;20042;-53
2023/01/04 04:36:56;;;;;;;0.30;0.28;;;12.70;75.00;;;;;;4984573;28;20053;-50
2023/01/04 04:39:23;;;;;;;1.77;0.90;;;12.60;75.00;;;;;;4993391;28;20146;-54
2023/01/04 04:41:51;;;;;;;0.40;0.25;;;12.70;75.20;;;;;;4994290;28;20046;-51
2023/01/04 04:44:19;;;;;;;0.80;0.52;;;12.60;75.20;;;;;;4993209;28;20035;-51
2023/01/04 04:46:47;;;;;;;0.75;0.28;;;12.60;75.30;;;;;;4983893;28;20046;-51
2023/01/04 04:49:18;;;;;;;0.13;0.10;;;12.60;75.40;;;;;;4992958;28;20102;-54
2023/01/04 04:51:46;;;;;;;0.65;0.30;;;12.60;75.40;;;;;;4994278;28;20069;-52
2023/01/04 04:54:19;;;;;;;0.60;0.40;;;12.60;75.40;;;;;;4992903;28;20129;-51
2023/01/04 04:56:47;;;;;;;1.58;0.30;;;12.70;75.60;;;;;;4988775;28;20039;-52
2023/01/04 04:59:15;;;;;;;1.80;0.35;;;12.70;75.50;;;;;;4986893;28;20038;-50
2023/01/04 05:01:46;;;;;;;0.13;0.13;;;12.70;75.50;;;;;;4985401;28;20129;-50
2023/01/04 05:04:18;;;;;;;0.20;0.20;;;12.70;75.50;;;;;;4984934;28;20042;-53
2023/01/04 05:06:46;;;;;;;0.52;0.40;;;12.70;75.50;;;;;;4988486;28;20042;-51
2023/01/04 05:09:13;;;;;;;0.20;0.17;;;12.80;75.50;;;;;;4986701;28;20038;-52
2023/01/04 05:14:28;;;;;;;0.68;0.20;;;12.80;75.40;;;;;;4988212;28;20038;-53
2023/01/04 05:16:55;;;;;;;0.20;0.10;;;12.80;75.30;;;;;;4985557;28;20109;-54
2023/01/04 05:19:24;;;;;;;0.57;0.30;;;12.80;75.30;;;;;;4985464;28;20042;-53
2023/01/04 05:21:51;;;;;;;0.30;0.30;;;12.90;75.30;;;;;;4988067;28;20042;-50
2023/01/04 05:24:18;;;;;;;0.32;0.20;;;12.90;75.30;;;;;;4989810;28;20041;-51
2023/01/04 05:26:46;;;;;;;2.33;0.40;;;12.90;75.20;;;;;;5001941;28;20042;-52
2023/01/04 05:32:08;;;;;;;0.68;0.30;;;12.90;75.10;;;;;;4987931;28;20042;-51
2023/01/04 05:34:38;;;;;;;1.73;0.50;;;13.00;75.10;;;;;;4992980;28;20046;-52
2023/01/04 05:37:04;;;;;;;1.73;0.30;;;13.00;75.00;;;;;;4993654;28;20049;-50
2023/01/04 05:39:33;;;;;;;0.30;0.30;;;13.00;75.00;;;;;;4989348;28;20529;-51
2023/01/04 05:44:56;;;;;;;0.50;0.30;;;13.10;75.00;;;;;;4989352;28;20074;-54
2023/01/04 05:47:26;;;;;;;0.40;0.30;;;13.10;75.60;;;;;;4993504;28;20073;-53
2023/01/04 05:49:52;;;;;;;0.93;0.40;;;13.20;75.00;;;;;;4990870;28;20093;-52
2023/01/04 05:52:22;;;;;;;0.52;0.52;;;13.20;74.90;;;;;;4986606;28;20410;-53
2023/01/04 05:54:54;;;;;;;0.57;0.57;;;13.20;74.80;;;;;;4991472;28;20052;-52
2023/01/04 05:57:24;;;;;;;1.08;0.93;;;13.20;74.70;;;;;;4978535;28;20535;-52
2023/01/04 05:59:52;;;;;;;1.55;0.52;;;13.20;74.70;;;;;;4989796;28;20077;-51
2023/01/04 06:02:26;;;;;;;0.73;0.73;;;13.30;74.80;;;;;;4985503;28;20096;-51
2023/01/04 06:04:54;;;;;;;0.45;0.45;;;13.30;74.70;;;;;;4990636;28;20560;-53
2023/01/04 06:07:26;;;;;;;2.90;0.87;;;13.30;74.60;;;;;;4987793;28;20109;-51
2023/01/04 06:09:53;;;;;;;1.00;0.80;;;13.30;74.50;;;;;;4988962;28;20081;-54
2023/01/04 06:12:20;;;;;;;0.50;0.50;;;13.40;74.60;;;;;;4989301;28;20573;-55
2023/01/04 06:14:49;;;;;;;0.68;0.30;;;13.40;74.50;;;;;;4991058;28;20058;-52
2023/01/04 06:17:15;;;;;;;0.22;0.22;;;13.40;74.50;;;;;;4987464;28;20048;-51
2023/01/04 06:19:42;;;;;;;0.90;0.50;;;13.40;74.50;;;;;;4980918;28;20592;-54
2023/01/04 06:22:10;;;;;;;0.52;0.30;;;13.40;74.50;;;;;;4982616;28;20130;-53
2023/01/04 06:24:41;;;;;;;0.70;0.70;;;13.40;74.50;;;;;;4990550;28;20076;-51
2023/01/04 06:27:15;;;;;;;1.17;0.30;;;13.50;74.60;;;;;;4990471;28;20049;-52
2023/01/04 06:29:45;;;;;;;0.30;0.30;;;13.50;74.50;;;;;;4989627;28;20670;-55
2023/01/04 06:32:12;;;;;;;0.32;0.30;;;13.50;74.50;;;;;;4985710;28;20518;-53
2023/01/04 06:34:44;;;;;;;0.43;0.30;;;13.50;74.40;;;;;;4990446;28;20154;-54
2023/01/04 06:37:15;;;;;;;0.40;0.30;;;13.50;74.50;;;;;;4990679;28;20434;-52
2023/01/04 06:39:44;;;;;;;1.02;0.22;;;13.50;74.50;;;;;;4984209;28;20097;-50
2023/01/04 06:42:43;;;;;;;2.05;0.40;;;13.50;74.50;;;;;;4989491;28;20046;-54
2023/01/04 06:44:59;;;;;;;0.40;0.40;;;13.50;74.40;;;;;;4990282;28;20042;-50
2023/01/04 06:47:28;;;;;;;2.92;0.60;;;13.60;74.50;;;;;;4982720;28;20069;-52
2023/01/04 06:49:55;;;;;;;1.00;0.60;;;13.60;74.50;;;;;;4988283;28;20538;-52
2023/01/04 06:52:27;;;;;;;0.25;0.25;;;13.60;74.50;;;;;;4991335;28;20038;-53
2023/01/04 06:54:54;;;;;;;0.30;0.30;;;13.60;74.50;;;;;;4989759;28;20637;-53
2023/01/04 06:57:32;;;;;;;0.57;0.30;;;13.60;74.50;;;;;;4987644;28;20529;-51
2023/01/04 06:59:59;;;;;;;0.30;0.30;;;13.60;74.50;;;;;;4985662;28;20054;-51
2023/01/04 07:02:25;;;;;;;0.75;0.50;;;13.70;74.60;;;;;;4989330;28;20046;-50
2023/01/04 07:04:59;;;;;;;0.30;0.30;;;13.60;74.40;;;;;;4987727;28;20529;-54
2023/01/04 07:07:31;;;;;;;0.57;0.57;;;13.70;74.50;;;;;;4985412;28;20121;-52
2023/01/04 07:10:07;;;;;;;0.40;0.40;;;13.70;74.60;;;;;;4987190;28;20089;-52
2023/01/04 07:12:37;;;;;;;1.92;0.50;;;13.70;74.60;;;;;;4989382;28;20043;-53
2023/01/04 07:15:05;;;;;;;1.95;0.47;;;13.70;74.60;;;;;;4985766;28;20084;-51
2023/01/04 07:17:56;;;;;;;1.50;1.00;;;13.70;74.50;;;;;;4985867;28;20776;-50
2023/01/04 07:20:32;;;;;;;0.75;0.52;;;13.70;74.50;;;;;;4989537;28;20100;-51
2023/01/04 07:22:58;;;;;;;;;;;13.70;74.50;;;;;;4987697;28;20100;-54
2023/01/04 07:25:25;;;;;;;0.52;0.32;;;13.80;74.50;;;;;;4989015;28;20020;-52
2023/01/04 07:27:55;;;;;;;0.65;0.30;;;13.80;74.40;;;;;;4989547;28;20056;-53
2023/01/04 07:30:25;;;;;;;0.35;0.35;;;13.80;74.50;;;;;;4987454;28;20089;-50
2023/01/04 07:32:56;;;;;;;0.40;0.40;;;13.80;74.60;;;;;;4985700;28;20046;-52
2023/01/04 07:35:23;;;;;;;0.70;0.60;;;13.80;74.60;;;;;;4985703;28;20452;-54
2023/01/04 07:37:50;;;;;;;0.30;0.30;;;13.80;74.70;;;;;;4989322;28;20133;-53
2023/01/04 07:40:25;;;;;;;0.50;0.30;;;13.80;74.70;;;;;;4989448;28;20518;-50
2023/01/04 07:42:57;;;;;;;0.20;0.20;;;13.80;74.80;;;;;;4989182;28;20061;-51
2023/01/04 07:45:24;;;;;;;0.30;0.30;;;13.80;74.90;;;;;;4986873;28;20413;-50
2023/01/04 07:47:53;;;;;;;0.55;0.28;;;13.80;74.80;;;;;;4989496;28;20108;-52
2023/01/04 07:50:24;;;;;;;0.60;0.57;;;13.80;74.90;;;;;;4988836;28;20113;-54
2023/01/04 07:52:53;;;;;;;0.60;0.45;;;13.80;75.00;;;;;;4985433;28;20046;-52
2023/01/04 07:55:22;;;;;;;0.70;0.35;;;13.80;75.10;;;;;;4987567;28;20064;-51
2023/01/04 07:57:52;;;;;;;2.10;0.63;;;13.80;75.10;;;;;;4989387;28;20063;-50
2023/01/04 08:00:19;;;;;;;1.00;0.60;;;13.80;75.10;;;;;;4988892;28;20550;-53
2023/01/04 08:02:50;;;;;;;1.88;0.40;;;13.80;75.10;;;;;;4983012;28;20056;-51
2023/01/04 08:05:21;;;;;;;1.23;0.50;;;13.80;75.20;;;;;;4988956;28;20065;-52
2023/01/04 08:07:51;;;;;;;0.68;0.40;;;13.80;75.30;;;;;;4989183;28;20046;-51
2023/01/04 08:10:23;;;;;;;0.75;0.75;;;13.80;75.30;;;;;;4988973;28;20061;-54
2023/01/04 08:12:49;;;;;;;3.80;0.50;;;13.80;75.30;;;;;;4983698;28;20472;-53
2023/01/04 08:15:16;;;;;;;1.73;0.50;;;13.90;75.30;;;;;;4988677;28;20289;-55
2023/01/04 08:17:45;;;;;;;1.27;0.40;;;13.90;75.30;;;;;;4987482;28;20104;-51
2023/01/04 08:20:11;;;;;;;2.15;0.70;;;13.90;75.30;;;;;;4986802;28;20043;-53
2023/01/04 08:22:41;;;;;;;1.15;0.40;;;14.00;75.40;;;;;;4983309;28;20681;-54
2023/01/04 08:25:08;;;;;;;2.45;0.52;;;14.00;75.50;;;;;;4989276;28;20141;-52
2023/01/04 08:27:35;;;;;;;1.20;0.60;;;14.00;75.50;;;;;;4988663;28;20045;-51
2023/01/04 08:30:03;;;;;;;0.60;0.55;;;14.00;75.50;;;;;;4987348;28;20295;-53
2023/01/04 08:32:36;;;;;;;0.50;0.50;;;14.00;75.70;;;;;;4985193;28;20038;-52
2023/01/04 08:35:02;;;;;;;1.50;1.10;;;14.00;75.80;;;;;;4989033;28;20046;-51
2023/01/04 08:37:30;;;;;;;0.63;0.63;;;14.00;76.00;;;;;;4990748;28;20042;-52
2023/01/04 08:39:57;;;;;;;1.60;0.57;;;13.90;76.20;;;;;;4984667;28;20453;-52
2023/01/04 08:42:26;;;;;;;1.35;0.90;;;13.90;76.30;;;;;;4989360;28;20038;-55
2023/01/04 08:44:59;;;;;;;0.60;0.60;;;13.90;76.40;;;;;;4987066;28;20495;-52
2023/01/04 08:47:29;;;;;;;1.85;0.60;;;13.90;76.50;;;;;;4986158;28;20042;-53
2023/01/04 08:49:57;;;;;;;0.57;0.55;;;13.90;76.60;;;;;;4987454;28;20042;-53
2023/01/04 08:52:38;;;;;;;1.05;0.60;;;13.90;76.60;;;;;;4980232;28;20053;-52
2023/01/04 08:55:05;;;;;;;0.50;0.32;;;13.90;76.60;;;;;;4979321;28;20057;-50
2023/01/04 08:57:39;;;;;;;3.35;0.85;;;13.90;76.70;;;;;;4982260;28;20097;-53
2023/01/04 09:00:06;;;;;;;0.70;0.40;;;13.90;76.70;;;;;;4988784;28;20038;-52
2023/01/04 09:02:35;;;;;;;0.47;0.47;;;13.90;76.90;;;;;;4980090;28;20112;-51
2023/01/04 09:05:09;;;;;;;1.05;0.73;;;13.90;76.70;;;;;;4981871;28;20089;-51
2023/01/04 09:07:48;;;;;;;0.87;0.60;;;14.00;76.70;;;;;;4982295;28;20535;-52
2023/01/04 09:10:21;;;;;;;2.85;0.60;;;14.00;76.60;;;;;;4985991;28;20340;-53
2023/01/04 09:12:47;;;;;;;1.08;0.30;;;14.10;76.40;;;;;;4988063;28;20081;-55
2023/01/04 09:15:16;;;;;;;3.33;1.20;;;14.10;76.40;;;;;;4989898;28;20051;-53
2023/01/04 09:17:45;;;;;;;1.67;0.57;;;14.20;76.10;;;;;;4990642;28;20414;-51
2023/01/04 09:20:36;;;;;;;0.40;0.40;;;14.20;75.90;;;;;;4993666;28;20046;-52
2023/01/04 09:23:05;;;;;;;1.08;0.50;;;14.30;75.70;;;;;;4988105;28;20050;-53
2023/01/04 09:25:31;;;;;;;2.05;0.30;;;14.40;75.60;;;;;;4993558;28;20438;-52
2023/01/04 09:27:58;;;;;;;0.98;0.40;;;14.50;75.50;;;;;;4990088;28;20420;-55
2023/01/04 09:30:26;;;;;;;2.47;0.65;;;14.50;75.40;;;;;;4984788;28;20039;-51
2023/01/04 09:32:57;;;;;;;0.55;0.40;;;14.50;75.20;;;;;;4982479;28;20397;-53
2023/01/04 09:35:27;;;;;;;0.55;0.30;;;14.60;75.00;;;;;;4982087;28;20039;-51
2023/01/04 09:37:55;;;;;;;1.17;0.55;;;14.60;74.90;;;;;;4987441;28;20034;-54
2023/01/04 09:40:30;;;;;;;0.47;0.30;;;14.60;74.90;;;;;;4981372;28;20052;-51
2023/01/04 09:43:10;;;;;;;1.13;0.40;;;14.60;74.70;;;;;;4981853;28;20045;-52
2023/01/04 09:45:51;;;;;;;0.63;0.40;;;14.70;74.80;;;;;;4984465;28;20042;-51
2023/01/04 09:48:29;;;;;;;0.90;0.80;;;14.60;74.80;;;;;;4992003;28;20049;-54
2023/01/04 09:51:02;;;;;;;0.60;0.60;;;14.60;75.30;;;;;;4993496;28;20049;-51
2023/01/04 09:53:39;;;;;;;1.13;0.82;;;14.60;74.80;;;;;;4993165;28;20034;-53
2023/01/04 09:56:22;;;;;;;2.13;0.90;;;14.60;74.90;;;;;;4991247;28;20053;-55
2023/01/04 09:58:54;;;;;;;1.25;0.65;;;14.60;75.60;;;;;;4993213;28;20410;-51
2023/01/04 10:01:21;;;;;;;2.00;0.90;;;14.60;75.50;;;;;;4992956;28;20042;-51
2023/01/04 10:03:54;;;;;;;1.60;0.70;;;14.50;75.70;;;;;;4993317;28;20581;-53
2023/01/04 10:06:23;;;;;;;2.25;0.50;;;14.50;76.30;;;;;;4991274;28;20558;-52
2023/01/04 10:08:58;;;;;;;0.77;0.40;;;14.50;76.30;;;;;;4986727;28;20043;-55
2023/01/04 10:11:47;;;;;;;3.28;0.47;;;14.40;76.50;;;;;;4983854;28;20220;-53
2023/01/04 10:14:23;;;;;;;1.25;0.55;;;14.40;76.90;;;;;;4987186;28;20122;-54
2023/01/04 10:16:52;;;;;;;1.77;0.70;;;14.40;77.00;;;;;;4993120;28;20081;-53
2023/01/04 10:20:03;;;;;;;0.88;0.50;;;14.40;77.10;;;;;;4992631;28;20056;-52
2023/01/04 10:23:03;;;;;;;0.68;0.60;;;14.40;77.80;;;;;;4985325;28;20046;-52
2023/01/04 10:25:43;;;;;;;1.02;0.80;;;14.40;77.40;;;;;;4988277;28;20137;-53
2023/01/04 10:28:35;;;;;;;2.38;0.82;;;14.30;77.70;;;;;;4992741;28;20042;-52
2023/01/04 10:31:23;;;;;;;1.60;0.60;;;14.30;77.70;;;;;;4992232;28;20073;-52
2023/01/04 10:34:39;;;;;;;2.08;0.88;;;14.30;78.00;;;;;;4983599;28;20113;-53
2023/01/04 10:37:33;;;;;;;2.10;0.77;;;14.30;78.00;;;;;;4988945;28;20130;-53
2023/01/04 10:40:15;;;;;;;1.20;0.60;;;14.30;78.40;;;;;;4988693;28;20568;-53
2023/01/04 10:43:01;;;;;;;0.90;0.70;;;14.30;78.20;;;;;;4983946;28;20454;-51
2023/01/04 10:45:47;;;;;;;1.40;0.70;;;14.30;78.70;;;;;;4992229;28;20117;-53
2023/01/04 10:48:23;;;;;;;2.20;0.80;;;14.30;78.40;;;;;;4992114;28;20050;-53
2023/01/04 10:50:57;;;;;;;0.90;0.50;;;14.30;78.60;;;;;;4992432;28;20141;-52
2023/01/04 10:53:56;;;;;;;2.63;1.40;;;14.40;78.70;;;;;;4989046;28;20495;-52
2023/01/04 10:56:23;;;;;;;2.03;1.08;;;14.40;78.80;;;;;;4992088;28;20038;-54
2023/01/04 10:59:23;;;;;;;1.73;0.93;;;14.40;78.50;;;;;;4991209;28;20185;-54
2023/01/04 11:02:39;;;;;;;5.05;1.33;;;14.40;79.00;;;;;;4983928;28;20046;-54
2023/01/04 11:05:19;;;;;;;1.10;0.73;;;14.40;78.80;;;;;;4950760;28;20055;-51
2023/01/04 11:07:58;;;;;;;2.00;1.10;;;14.50;78.50;;;;;;4944451;28;20125;-51
2023/01/04 11:10:34;;;;;;;3.78;1.02;;;14.50;78.80;;;;;;4971532;28;20051;-52
2023/01/04 11:13:05;;;;;;;1.60;0.80;;;14.40;78.50;;;;;;4991443;28;20125;-52
2023/01/04 11:15:38;;;;;;;1.10;0.82;;;14.50;78.60;;;;;;4991651;28;20046;-52
2023/01/04 11:18:06;;;;;;;2.45;1.00;;;14.50;78.70;;;;;;4987310;28;20066;-53
2023/01/04 11:20:36;;;;;;;0.90;0.90;;;14.50;78.80;;;;;;4986919;28;20046;-54
2023/01/04 11:23:10;;;;;;;2.15;0.88;;;14.50;78.80;;;;;;4985381;28;20042;-51
2023/01/04 11:25:49;;;;;;;0.60;0.60;;;14.50;78.90;;;;;;4983888;28;20077;-53
2023/01/04 11:28:54;;;;;;;1.38;0.70;;;14.50;79.00;;;;;;4984357;28;20049;-52
2023/01/04 11:31:52;;;;;;;1.73;0.70;;;14.50;79.10;;;;;;4983861;28;20054;-52
2023/01/04 11:34:19;;;;;;;0.45;0.43;;;14.50;79.00;;;;;;4983732;28;20049;-54
2023/01/04 11:36:48;;;;;;;1.65;0.80;;;14.50;78.80;;;;;;4981020;28;20074;-52
2023/01/04 11:39:18;;;;;;;2.00;0.80;;;14.50;78.80;;;;;;4985206;28;20042;-51
2023/01/04 11:42:01;;;;;;;0.82;0.70;;;14.50;78.80;;;;;;4986171;28;20454;-54
2023/01/04 11:44:32;;;;;;;1.60;0.88;;;14.50;79.00;;;;;;4981484;28;20061;-51
2023/01/04 11:47:23;;;;;;;0.60;0.57;;;14.50;78.60;;;;;;5000461;28;20035;-54
2023/01/04 11:49:56;;;;;;;1.65;0.68;;;14.50;78.90;;;;;;4981968;28;20410;-54
2023/01/04 11:52:26;;;;;;;0.52;0.50;;;14.60;78.60;;;;;;4982555;28;20046;-53
2023/01/04 11:54:55;;;;;;;1.15;0.60;;;14.60;78.60;;;;;;4982505;28;20041;-54
2023/01/04 11:57:28;;;;;;;0.70;0.60;;;14.60;78.70;;;;;;4985795;28;20046;-55
2023/01/04 12:00:13;;;;;;;0.70;0.65;;;14.60;78.70;;;;;;4983751;28;20039;-54
2023/01/04 12:02:42;;;;;;;0.60;0.50;;;14.60;79.00;;;;;;4980299;28;20050;-53
2023/01/04 12:05:31;;;;;;;0.65;0.60;;;14.60;79.00;;;;;;4991300;28;20530;-55
2023/01/04 12:08:00;;;;;;;1.85;0.40;;;14.60;79.20;;;;;;4989146;28;20457;-55
2023/01/04 12:10:29;;;;;;;0.85;0.50;;;14.60;79.90;;;;;;4991260;28;20041;-55
2023/01/04 12:13:03;;;;;;;0.90;0.55;;;14.60;79.40;;;;;;4991269;28;20399;-56
2023/01/04 12:15:37;;;;;;;1.63;0.60;;;14.60;79.50;;;;;;4984067;28;20045;-54
2023/01/04 12:18:11;;;;;;;0.65;0.50;;;14.60;79.50;;;;;;4990338;28;20317;-52
2023/01/04 12:20:42;;;;;;;1.17;0.47;;;14.50;79.50;;;;;;4991104;28;20069;-54
2023/01/04 12:23:17;;;;;;;0.55;0.55;;;14.50;79.60;;;;;;4986238;28;20038;-54
2023/01/04 12:25:49;;;;;;;0.30;0.30;;;14.60;80.00;;;;;;4983489;28;20046;-54
2023/01/04 12:28:38;;;;;;;0.57;0.40;;;14.50;79.80;;;;;;4991226;28;20406;-56
2023/01/04 12:31:20;;;;;;;1.58;0.40;;;14.50;80.10;;;;;;4988668;28;20030;-56
2023/01/04 12:33:54;;;;;;;0.57;0.50;;;14.50;80.40;;;;;;4985122;28;20034;-56
2023/01/04 12:36:40;;;;;;;0.40;0.40;;;14.60;80.30;;;;;;4986826;28;20053;-55
2023/01/04 12:39:15;;;;;;;2.17;0.57;;;14.60;80.60;;;;;;4989947;28;20530;-56
2023/01/04 12:41:59;;;;;;;0.50;0.50;;;14.60;80.30;;;;;;4983145;28;20553;-56
2023/01/04 12:44:35;;;;;;;0.30;0.30;;;14.60;80.20;;;;;;4989161;28;20050;-56
2023/01/04 12:50:17;;;;;;;0.43;0.30;;;14.60;80.70;;;;;;4993930;28;20113;-55
2023/01/04 12:52:47;;;;;;;0.63;0.60;;;14.60;80.30;;;;;;4991851;28;20490;-54
2023/01/04 12:55:43;;;;;;;0.40;0.20;;;14.60;80.30;;;;;;4993899;28;20128;-56
2023/01/04 12:59:04;;;;;;;0.32;0.32;;;14.60;80.20;;;;;;4994957;28;20062;-56
2023/01/04 13:02:18;;;;;;;0.28;0.28;;;14.60;80.60;;;;;;4992635;28;20046;-53
2023/01/04 13:04:58;;;;;;;0.20;0.20;;;14.60;80.20;;;;;;4986874;28;20045;-55
2023/01/04 13:07:51;;;;;;;0.70;0.20;;;14.60;80.20;;;;;;4994323;28;20038;-54
2023/01/04 13:10:38;;;;;;;0.32;0.10;;;14.60;79.90;;;;;;4991307;28;20041;-56
2023/01/04 13:13:28;;;;;;;0.30;0.30;;;14.60;80.10;;;;;;4988964;28;20068;-55
2023/01/04 13:16:03;;;;;;;1.27;0.38;;;14.70;80.20;;;;;;4993642;28;20133;-56
2023/01/04 13:18:49;;;;;;;0.95;0.68;;;14.70;80.00;;;;;;4991490;28;20039;-56
2023/01/04 13:21:41;;;;;;;0.85;0.47;;;14.70;80.40;;;;;;4989250;28;20045;-55
2023/01/04 13:24:30;;;;;;;0.75;0.45;;;14.70;80.20;;;;;;4988671;28;20121;-55
2023/01/04 13:27:05;;;;;;;0.80;0.60;;;14.70;80.00;;;;;;4993368;28;20038;-55
2023/01/04 13:29:37;;;;;;;0.77;0.40;;;14.70;80.00;;;;;;4992912;28;20037;-56
2023/01/04 13:32:23;;;;;;;0.47;0.47;;;14.70;79.80;;;;;;4982064;28;20042;-56
2023/01/04 13:35:00;;;;;;;0.43;0.43;;;14.80;79.80;;;;;;4987710;28;20462;-56
2023/01/04 13:37:37;;;;;;;0.40;0.40;;;14.80;80.00;;;;;;4993181;28;20038;-56
2023/01/04 13:40:33;;;;;;;0.30;0.30;;;14.80;79.90;;;;;;4990850;28;20113;-56
2023/01/04 13:43:09;;;;;;;0.50;0.43;;;14.80;80.00;;;;;;4990798;28;20537;-56
2023/01/04 13:46:13;;;;;;;0.40;0.40;;;14.80;79.70;;;;;;4992866;28;20592;-55
2023/01/04 13:48:42;;;;;;;0.57;0.57;;;14.80;79.90;;;;;;4990562;28;20053;-54
2023/01/04 13:51:16;;;;;;;0.70;0.70;;;14.80;79.80;;;;;;4987828;28;20153;-55
2023/01/04 13:53:59;;;;;;;1.13;0.55;;;14.90;80.00;;;;;;4992678;28;20045;-55
2023/01/04 13:56:32;;;;;;;0.50;0.50;;;14.90;80.30;;;;;;4992671;28;20435;-56
2023/01/04 13:59:08;;;;;;;0.80;0.32;;;14.80;80.00;;;;;;4989635;28;20040;-56
2023/01/04 14:01:47;;;;;;;0.52;0.35;;;14.90;80.00;;;;;;4991224;28;20045;-54
2023/01/04 14:04:29;;;;;;;0.60;0.60;;;14.90;80.00;;;;;;4991252;28;20109;-56
2023/01/04 14:07:04;;;;;;;0.52;0.50;;;14.90;80.00;;;;;;4988859;28;20043;-53
2023/01/04 14:09:43;;;;;;;0.60;0.43;;;14.90;79.90;;;;;;4985454;28;20125;-52
2023/01/04 14:12:16;;;;;;;1.65;0.40;;;14.90;80.00;;;;;;4992474;28;20030;-54
2023/01/04 14:14:58;;;;;;;0.38;0.30;;;14.90;80.00;;;;;;4992364;28;20463;-55
2023/01/04 14:17:31;;;;;;;0.40;0.40;;;14.90;80.10;;;;;;4987189;28;20038;-54
2023/01/04 14:20:04;;;;;;;0.45;0.40;;;14.90;80.00;;;;;;4987833;28;20581;-56